sensor_id;sensor_type;location;lat;lon;timestamp;temperature;humidity
67186;HTU21D;54116;53.518;49.398;2023-02-01T00:02:22;-7.61;90.86
67186;HTU21D;54116;53.518;49.398;2023-02-01T00:04:50;-7.61;91.17
67186;HTU21D;54116;53.518;49.398;2023-02-01T00:07:16;-7.62;91.33
67186;HTU21D;54116;53.518;49.398;2023-02-01T00:09:42;-7.66;91.06
67186;HTU21D;54116;53.518;49.398;2023-02-01T00:12:08;-7.67;91.50
67186;HTU21D;54116;53.518;49.398;2023-02-01T00:14:35;-7.66;91.01
67186;HTU21D;54116;53.518;49.398;2023-02-01T00:17:05;-7.68;90.89
67186;HTU21D;54116;53.518;49.398;2023-02-01T00:19:33;-7.70;91.40
67186;HTU21D;54116;53.518;49.398;2023-02-01T00:22:00;-7.77;91.40
67186;HTU21D;54116;53.518;49.398;2023-02-01T00:24:26;-7.75;91.68
67186;HTU21D;54116;53.518;49.398;2023-02-01T00:26:52;-7.69;91.16
67186;HTU21D;54116;53.518;49.398;2023-02-01T00:29:19;-7.70;91.02
67186;HTU21D;54116;53.518;49.398;2023-02-01T00:31:49;-7.74;91.00
67186;HTU21D;54116;53.518;49.398;2023-02-01T00:34:16;-7.75;91.37
67186;HTU21D;54116;53.518;49.398;2023-02-01T00:36:42;-7.81;93.24
67186;HTU21D;54116;53.518;49.398;2023-02-01T00:39:10;-7.85;91.43
67186;HTU21D;54116;53.518;49.398;2023-02-01T00:41:36;-7.82;91.47
67186;HTU21D;54116;53.518;49.398;2023-02-01T00:44:03;-7.87;91.29
67186;HTU21D;54116;53.518;49.398;2023-02-01T00:46:29;-7.90;92.70
67186;HTU21D;54116;53.518;49.398;2023-02-01T00:48:56;-7.94;91.91
67186;HTU21D;54116;53.518;49.398;2023-02-01T00:51:27;-7.93;93.45
67186;HTU21D;54116;53.518;49.398;2023-02-01T00:53:54;-7.93;92.79
67186;HTU21D;54116;53.518;49.398;2023-02-01T00:56:21;-7.98;91.47
67186;HTU21D;54116;53.518;49.398;2023-02-01T00:58:48;-7.96;91.69
67186;HTU21D;54116;53.518;49.398;2023-02-01T01:01:32;-7.95;92.04
67186;HTU21D;54116;53.518;49.398;2023-02-01T01:03:59;-7.95;91.92
67186;HTU21D;54116;53.518;49.398;2023-02-01T01:06:27;-8.01;92.49
67186;HTU21D;54116;53.518;49.398;2023-02-01T01:08:55;-8.06;91.52
67186;HTU21D;54116;53.518;49.398;2023-02-01T01:11:24;-8.10;91.36
67186;HTU21D;54116;53.518;49.398;2023-02-01T01:13:52;-8.12;91.61
67186;HTU21D;54116;53.518;49.398;2023-02-01T01:16:21;-8.15;90.95
67186;HTU21D;54116;53.518;49.398;2023-02-01T01:18:48;-8.20;91.76
67186;HTU21D;54116;53.518;49.398;2023-02-01T01:21:15;-8.24;92.88
67186;HTU21D;54116;53.518;49.398;2023-02-01T01:23:42;-8.31;91.75
67186;HTU21D;54116;53.518;49.398;2023-02-01T01:26:15;-8.39;93.03
67186;HTU21D;54116;53.518;49.398;2023-02-01T01:28:42;-8.44;93.49
67186;HTU21D;54116;53.518;49.398;2023-02-01T01:31:13;-8.51;93.04
67186;HTU21D;54116;53.518;49.398;2023-02-01T01:33:40;-8.54;94.72
67186;HTU21D;54116;53.518;49.398;2023-02-01T01:36:11;-8.60;92.81
67186;HTU21D;54116;53.518;49.398;2023-02-01T01:38:39;-8.67;93.21
67186;HTU21D;54116;53.518;49.398;2023-02-01T01:41:06;-8.69;93.78
67186;HTU21D;54116;53.518;49.398;2023-02-01T01:44:06;-8.71;93.91
67186;HTU21D;54116;53.518;49.398;2023-02-01T01:46:38;-8.73;95.36
67186;HTU21D;54116;53.518;49.398;2023-02-01T01:49:13;-8.77;95.23
67186;HTU21D;54116;53.518;49.398;2023-02-01T01:51:46;-8.85;94.16
67186;HTU21D;54116;53.518;49.398;2023-02-01T01:56:52;-8.89;94.30
67186;HTU21D;54116;53.518;49.398;2023-02-01T01:59:21;-9.02;93.54
67186;HTU21D;54116;53.518;49.398;2023-02-01T02:01:49;-9.13;93.22
67186;HTU21D;54116;53.518;49.398;2023-02-01T02:04:16;-9.19;94.40
67186;HTU21D;54116;53.518;49.398;2023-02-01T02:06:49;-9.23;94.79
67186;HTU21D;54116;53.518;49.398;2023-02-01T02:09:17;-9.26;94.14
67186;HTU21D;54116;53.518;49.398;2023-02-01T02:11:43;-9.38;93.62
67186;HTU21D;54116;53.518;49.398;2023-02-01T02:14:11;-9.45;95.23
67186;HTU21D;54116;53.518;49.398;2023-02-01T02:22:05;-9.87;95.43
67186;HTU21D;54116;53.518;49.398;2023-02-01T02:41:17;-10.49;98.29
67186;HTU21D;54116;53.518;49.398;2023-02-01T02:44:12;-10.52;98.78
67186;HTU21D;54116;53.518;49.398;2023-02-01T02:47:00;-10.36;99.93
67186;HTU21D;54116;53.518;49.398;2023-02-01T02:49:58;-10.40;98.98
67186;HTU21D;54116;53.518;49.398;2023-02-01T02:53:02;-10.51;98.24
67186;HTU21D;54116;53.518;49.398;2023-02-01T02:55:50;-10.35;99.74
67186;HTU21D;54116;53.518;49.398;2023-02-01T02:58:16;-10.20;98.81
67186;HTU21D;54116;53.518;49.398;2023-02-01T03:01:02;-10.20;98.55
67186;HTU21D;54116;53.518;49.398;2023-02-01T03:03:48;-10.16;99.04
67186;HTU21D;54116;53.518;49.398;2023-02-01T03:06:36;-10.15;98.63
67186;HTU21D;54116;53.518;49.398;2023-02-01T03:09:08;-10.05;100.01
67186;HTU21D;54116;53.518;49.398;2023-02-01T03:11:36;-10.13;97.84
67186;HTU21D;54116;53.518;49.398;2023-02-01T03:14:26;-10.21;97.49
67186;HTU21D;54116;53.518;49.398;2023-02-01T03:17:00;-10.26;97.96
67186;HTU21D;54116;53.518;49.398;2023-02-01T03:19:39;-10.29;97.96
67186;HTU21D;54116;53.518;49.398;2023-02-01T03:22:12;-10.26;98.23
67186;HTU21D;54116;53.518;49.398;2023-02-01T03:27:37;-10.26;97.78
67186;HTU21D;54116;53.518;49.398;2023-02-01T03:30:24;-10.45;96.49
67186;HTU21D;54116;53.518;49.398;2023-02-01T03:32:55;-10.62;96.54
67186;HTU21D;54116;53.518;49.398;2023-02-01T03:35:54;-10.77;96.81
67186;HTU21D;54116;53.518;49.398;2023-02-01T03:43:36;-10.86;99.03
67186;HTU21D;54116;53.518;49.398;2023-02-01T03:46:09;-10.96;98.19
67186;HTU21D;54116;53.518;49.398;2023-02-01T03:48:39;-11.17;97.76
67186;HTU21D;54116;53.518;49.398;2023-02-01T03:51:06;-11.29;98.80
67186;HTU21D;54116;53.518;49.398;2023-02-01T03:53:35;-11.26;99.84
67186;HTU21D;54116;53.518;49.398;2023-02-01T03:56:02;-11.18;100.93
67186;HTU21D;54116;53.518;49.398;2023-02-01T03:58:29;-11.23;99.81
67186;HTU21D;54116;53.518;49.398;2023-02-01T04:00:57;-11.15;101.62
67186;HTU21D;54116;53.518;49.398;2023-02-01T04:03:25;-11.22;99.90
67186;HTU21D;54116;53.518;49.398;2023-02-01T04:05:52;-11.27;99.47
67186;HTU21D;54116;53.518;49.398;2023-02-01T04:08:19;-11.18;100.45
67186;HTU21D;54116;53.518;49.398;2023-02-01T04:10:46;-11.20;100.03
67186;HTU21D;54116;53.518;49.398;2023-02-01T04:13:13;-11.05;101.77
67186;HTU21D;54116;53.518;49.398;2023-02-01T04:15:39;-10.99;101.16
67186;HTU21D;54116;53.518;49.398;2023-02-01T04:18:05;-10.79;102.31
67186;HTU21D;54116;53.518;49.398;2023-02-01T04:20:32;-10.64;100.36
67186;HTU21D;54116;53.518;49.398;2023-02-01T04:22:58;-10.43;101.83
67186;HTU21D;54116;53.518;49.398;2023-02-01T04:25:25;-10.18;100.06
67186;HTU21D;54116;53.518;49.398;2023-02-01T04:27:51;-10.14;98.26
67186;HTU21D;54116;53.518;49.398;2023-02-01T04:30:17;-10.05;98.13
67186;HTU21D;54116;53.518;49.398;2023-02-01T04:32:44;-9.89;96.97
67186;HTU21D;54116;53.518;49.398;2023-02-01T04:35:10;-9.83;96.23
67186;HTU21D;54116;53.518;49.398;2023-02-01T04:37:37;-9.76;96.10
67186;HTU21D;54116;53.518;49.398;2023-02-01T04:40:04;-9.67;95.87
67186;HTU21D;54116;53.518;49.398;2023-02-01T04:42:30;-9.59;94.77
67186;HTU21D;54116;53.518;49.398;2023-02-01T04:44:57;-9.57;95.04
67186;HTU21D;54116;53.518;49.398;2023-02-01T04:47:23;-9.54;95.23
67186;HTU21D;54116;53.518;49.398;2023-02-01T04:49:50;-9.51;94.36
67186;HTU21D;54116;53.518;49.398;2023-02-01T04:52:16;-9.44;93.78
67186;HTU21D;54116;53.518;49.398;2023-02-01T04:54:44;-9.36;93.47
67186;HTU21D;54116;53.518;49.398;2023-02-01T04:57:11;-9.26;92.74
67186;HTU21D;54116;53.518;49.398;2023-02-01T04:59:41;-9.11;92.09
67186;HTU21D;54116;53.518;49.398;2023-02-01T05:02:08;-8.87;91.55
67186;HTU21D;54116;53.518;49.398;2023-02-01T05:04:34;-8.66;90.40
67186;HTU21D;54116;53.518;49.398;2023-02-01T05:07:00;-8.52;89.73
67186;HTU21D;54116;53.518;49.398;2023-02-01T05:09:46;-8.41;89.45
67186;HTU21D;54116;53.518;49.398;2023-02-01T05:12:22;-8.11;88.69
67186;HTU21D;54116;53.518;49.398;2023-02-01T05:15:07;-7.80;86.61
67186;HTU21D;54116;53.518;49.398;2023-02-01T05:17:33;-7.70;85.63
67186;HTU21D;54116;53.518;49.398;2023-02-01T05:20:00;-7.81;85.26
67186;HTU21D;54116;53.518;49.398;2023-02-01T05:22:26;-7.41;85.21
67186;HTU21D;54116;53.518;49.398;2023-02-01T05:24:53;-7.26;83.13
67186;HTU21D;54116;53.518;49.398;2023-02-01T05:27:19;-7.60;85.51
67186;HTU21D;54116;53.518;49.398;2023-02-01T05:29:45;-7.71;85.37
67186;HTU21D;54116;53.518;49.398;2023-02-01T05:32:11;-7.75;85.99
67186;HTU21D;54116;53.518;49.398;2023-02-01T05:34:38;-7.77;85.42
67186;HTU21D;54116;53.518;49.398;2023-02-01T05:37:04;-7.70;85.80
67186;HTU21D;54116;53.518;49.398;2023-02-01T05:39:30;-7.66;85.55
67186;HTU21D;54116;53.518;49.398;2023-02-01T05:41:57;-7.65;85.33
67186;HTU21D;54116;53.518;49.398;2023-02-01T05:44:23;-7.56;84.28
67186;HTU21D;54116;53.518;49.398;2023-02-01T05:46:50;-7.57;83.98
67186;HTU21D;54116;53.518;49.398;2023-02-01T05:49:18;-7.69;84.35
67186;HTU21D;54116;53.518;49.398;2023-02-01T05:51:44;-7.64;84.71
67186;HTU21D;54116;53.518;49.398;2023-02-01T05:54:10;-7.52;83.94
67186;HTU21D;54116;53.518;49.398;2023-02-01T05:56:37;-7.36;84.24
67186;HTU21D;54116;53.518;49.398;2023-02-01T05:59:03;-7.15;82.63
67186;HTU21D;54116;53.518;49.398;2023-02-01T06:01:29;-7.02;82.53
67186;HTU21D;54116;53.518;49.398;2023-02-01T06:03:56;-6.94;81.43
67186;HTU21D;54116;53.518;49.398;2023-02-01T06:06:22;-6.85;81.07
67186;HTU21D;54116;53.518;49.398;2023-02-01T06:08:48;-6.77;81.04
67186;HTU21D;54116;53.518;49.398;2023-02-01T06:11:14;-6.70;80.43
67186;HTU21D;54116;53.518;49.398;2023-02-01T06:13:42;-6.62;79.76
67186;HTU21D;54116;53.518;49.398;2023-02-01T06:16:08;-6.53;80.15
67186;HTU21D;54116;53.518;49.398;2023-02-01T06:18:35;-6.42;80.01
67186;HTU21D;54116;53.518;49.398;2023-02-01T06:21:01;-6.38;79.24
67186;HTU21D;54116;53.518;49.398;2023-02-01T06:23:29;-6.18;78.32
67186;HTU21D;54116;53.518;49.398;2023-02-01T06:26:04;-6.01;79.30
67186;HTU21D;54116;53.518;49.398;2023-02-01T06:28:31;-5.69;76.91
67186;HTU21D;54116;53.518;49.398;2023-02-01T06:30:58;-5.53;76.24
67186;HTU21D;54116;53.518;49.398;2023-02-01T06:33:28;-5.44;75.50
67186;HTU21D;54116;53.518;49.398;2023-02-01T06:35:59;-5.40;76.17
67186;HTU21D;54116;53.518;49.398;2023-02-01T06:38:26;-5.38;75.95
67186;HTU21D;54116;53.518;49.398;2023-02-01T06:40:53;-5.24;75.09
67186;HTU21D;54116;53.518;49.398;2023-02-01T06:43:24;-5.13;74.21
67186;HTU21D;54116;53.518;49.398;2023-02-01T06:45:51;-5.03;73.72
67186;HTU21D;54116;53.518;49.398;2023-02-01T06:48:18;-5.00;73.87
67186;HTU21D;54116;53.518;49.398;2023-02-01T06:50:44;-4.93;73.62
67186;HTU21D;54116;53.518;49.398;2023-02-01T06:53:11;-4.93;72.64
67186;HTU21D;54116;53.518;49.398;2023-02-01T06:55:37;-4.90;73.83
67186;HTU21D;54116;53.518;49.398;2023-02-01T06:58:03;-4.90;72.76
67186;HTU21D;54116;53.518;49.398;2023-02-01T07:00:30;-4.91;72.70
67186;HTU21D;54116;53.518;49.398;2023-02-01T07:02:57;-4.83;72.02
67186;HTU21D;54116;53.518;49.398;2023-02-01T07:05:24;-4.95;73.15
67186;HTU21D;54116;53.518;49.398;2023-02-01T07:07:51;-4.95;73.62
67186;HTU21D;54116;53.518;49.398;2023-02-01T07:10:17;-4.69;72.51
67186;HTU21D;54116;53.518;49.398;2023-02-01T07:12:43;-4.50;72.25
67186;HTU21D;54116;53.518;49.398;2023-02-01T07:15:10;-4.36;70.86
67186;HTU21D;54116;53.518;49.398;2023-02-01T07:17:36;-4.12;71.60
67186;HTU21D;54116;53.518;49.398;2023-02-01T07:20:03;-3.96;70.18
67186;HTU21D;54116;53.518;49.398;2023-02-01T07:22:29;-3.86;69.22
67186;HTU21D;54116;53.518;49.398;2023-02-01T07:24:56;-4.02;69.91
67186;HTU21D;54116;53.518;49.398;2023-02-01T07:27:22;-3.99;69.30
67186;HTU21D;54116;53.518;49.398;2023-02-01T07:29:51;-3.98;69.55
67186;HTU21D;54116;53.518;49.398;2023-02-01T07:32:17;-3.96;69.23
67186;HTU21D;54116;53.518;49.398;2023-02-01T07:34:44;-3.98;69.90
67186;HTU21D;54116;53.518;49.398;2023-02-01T07:37:11;-4.01;69.71
67186;HTU21D;54116;53.518;49.398;2023-02-01T07:39:37;-3.96;69.08
67186;HTU21D;54116;53.518;49.398;2023-02-01T07:42:05;-3.98;68.94
67186;HTU21D;54116;53.518;49.398;2023-02-01T07:44:31;-4.13;68.67
67186;HTU21D;54116;53.518;49.398;2023-02-01T07:46:58;-4.23;69.82
67186;HTU21D;54116;53.518;49.398;2023-02-01T07:49:24;-4.35;68.92
67186;HTU21D;54116;53.518;49.398;2023-02-01T07:51:50;-4.54;70.30
67186;HTU21D;54116;53.518;49.398;2023-02-01T07:54:17;-4.45;70.83
67186;HTU21D;54116;53.518;49.398;2023-02-01T07:56:43;-4.35;69.57
67186;HTU21D;54116;53.518;49.398;2023-02-01T07:59:10;-4.25;70.48
67186;HTU21D;54116;53.518;49.398;2023-02-01T08:01:37;-4.06;69.96
67186;HTU21D;54116;53.518;49.398;2023-02-01T08:04:04;-3.95;69.07
67186;HTU21D;54116;53.518;49.398;2023-02-01T08:06:32;-3.87;68.77
67186;HTU21D;54116;53.518;49.398;2023-02-01T08:09:00;-3.71;69.44
67186;HTU21D;54116;53.518;49.398;2023-02-01T08:11:27;-3.66;69.18
67186;HTU21D;54116;53.518;49.398;2023-02-01T08:13:53;-3.38;68.79
67186;HTU21D;54116;53.518;49.398;2023-02-01T08:16:20;-3.20;67.38
67186;HTU21D;54116;53.518;49.398;2023-02-01T08:18:48;-3.24;65.36
67186;HTU21D;54116;53.518;49.398;2023-02-01T08:21:26;-3.21;66.95
67186;HTU21D;54116;53.518;49.398;2023-02-01T08:23:54;-3.19;65.71
67186;HTU21D;54116;53.518;49.398;2023-02-01T08:26:25;-3.13;66.72
67186;HTU21D;54116;53.518;49.398;2023-02-01T08:28:57;-3.12;65.98
67186;HTU21D;54116;53.518;49.398;2023-02-01T08:31:24;-3.13;65.40
67186;HTU21D;54116;53.518;49.398;2023-02-01T08:33:53;-2.98;65.13
67186;HTU21D;54116;53.518;49.398;2023-02-01T08:36:21;-3.00;64.87
67186;HTU21D;54116;53.518;49.398;2023-02-01T08:38:47;-3.27;64.45
67186;HTU21D;54116;53.518;49.398;2023-02-01T08:41:15;-3.28;67.05
67186;HTU21D;54116;53.518;49.398;2023-02-01T08:43:42;-3.06;66.75
67186;HTU21D;54116;53.518;49.398;2023-02-01T08:46:09;-2.89;64.14
67186;HTU21D;54116;53.518;49.398;2023-02-01T08:48:37;-2.86;65.91
67186;HTU21D;54116;53.518;49.398;2023-02-01T08:51:09;-2.65;64.80
67186;HTU21D;54116;53.518;49.398;2023-02-01T08:53:36;-2.58;64.43
67186;HTU21D;54116;53.518;49.398;2023-02-01T08:56:04;-2.29;63.88
67186;HTU21D;54116;53.518;49.398;2023-02-01T08:58:31;-2.14;64.19
67186;HTU21D;54116;53.518;49.398;2023-02-01T09:01:02;-1.74;62.45
67186;HTU21D;54116;53.518;49.398;2023-02-01T09:03:29;-1.69;61.67
67186;HTU21D;54116;53.518;49.398;2023-02-01T09:06:06;-1.89;62.17
67186;HTU21D;54116;53.518;49.398;2023-02-01T09:08:34;-1.94;63.51
67186;HTU21D;54116;53.518;49.398;2023-02-01T09:11:06;-1.83;62.60
67186;HTU21D;54116;53.518;49.398;2023-02-01T09:13:32;-1.56;61.64
67186;HTU21D;54116;53.518;49.398;2023-02-01T09:15:59;-1.35;61.38
67186;HTU21D;54116;53.518;49.398;2023-02-01T09:18:26;-1.42;60.19
67186;HTU21D;54116;53.518;49.398;2023-02-01T09:20:52;-1.50;61.18
67186;HTU21D;54116;53.518;49.398;2023-02-01T09:23:19;-1.49;61.34
67186;HTU21D;54116;53.518;49.398;2023-02-01T09:25:46;-1.48;61.70
67186;HTU21D;54116;53.518;49.398;2023-02-01T09:28:16;-1.47;62.27
67186;HTU21D;54116;53.518;49.398;2023-02-01T09:30:42;-1.54;61.39
67186;HTU21D;54116;53.518;49.398;2023-02-01T09:33:09;-1.60;59.42
67186;HTU21D;54116;53.518;49.398;2023-02-01T09:35:35;-1.68;60.84
67186;HTU21D;54116;53.518;49.398;2023-02-01T09:38:01;-1.75;60.85
67186;HTU21D;54116;53.518;49.398;2023-02-01T09:40:28;-1.67;61.81
67186;HTU21D;54116;53.518;49.398;2023-02-01T09:43:15;-1.56;62.16
67186;HTU21D;54116;53.518;49.398;2023-02-01T09:48:21;-1.35;59.49
67186;HTU21D;54116;53.518;49.398;2023-02-01T09:50:57;-1.40;61.39
67186;HTU21D;54116;53.518;49.398;2023-02-01T09:56:03;-1.50;60.63
67186;HTU21D;54116;53.518;49.398;2023-02-01T09:58:44;-1.60;60.26
67186;HTU21D;54116;53.518;49.398;2023-02-01T10:01:24;-1.55;60.38
67186;HTU21D;54116;53.518;49.398;2023-02-01T10:04:01;-1.62;61.31
67186;HTU21D;54116;53.518;49.398;2023-02-01T10:15:26;-1.26;60.98
67186;HTU21D;54116;53.518;49.398;2023-02-01T10:21:47;-1.62;60.44
67186;HTU21D;54116;53.518;49.398;2023-02-01T10:27:18;-1.70;60.05
67186;HTU21D;54116;53.518;49.398;2023-02-01T10:29:51;-1.74;59.99
67186;HTU21D;54116;53.518;49.398;2023-02-01T10:32:23;-1.71;58.98
67186;HTU21D;54116;53.518;49.398;2023-02-01T10:35:22;-1.65;60.92
67186;HTU21D;54116;53.518;49.398;2023-02-01T10:37:50;-1.50;58.96
67186;HTU21D;54116;53.518;49.398;2023-02-01T10:40:25;-1.45;59.92
67186;HTU21D;54116;53.518;49.398;2023-02-01T10:42:57;-1.40;59.56
67186;HTU21D;54116;53.518;49.398;2023-02-01T10:45:26;-1.54;58.76
67186;HTU21D;54116;53.518;49.398;2023-02-01T10:47:54;-1.58;58.83
67186;HTU21D;54116;53.518;49.398;2023-02-01T10:55:39;-1.50;59.48
67186;HTU21D;54116;53.518;49.398;2023-02-01T10:58:14;-1.42;58.58
67186;HTU21D;54116;53.518;49.398;2023-02-01T11:00:47;-1.43;57.74
67186;HTU21D;54116;53.518;49.398;2023-02-01T11:05:57;-1.36;58.41
67186;HTU21D;54116;53.518;49.398;2023-02-01T11:08:23;-1.34;57.74
67186;HTU21D;54116;53.518;49.398;2023-02-01T11:11:02;-1.59;57.46
67186;HTU21D;54116;53.518;49.398;2023-02-01T11:13:32;-1.67;59.18
67186;HTU21D;54116;53.518;49.398;2023-02-01T11:16:04;-1.70;59.42
67186;HTU21D;54116;53.518;49.398;2023-02-01T11:18:35;-1.79;58.41
67186;HTU21D;54116;53.518;49.398;2023-02-01T11:21:03;-1.82;58.14
67186;HTU21D;54116;53.518;49.398;2023-02-01T11:23:30;-1.86;59.58
67186;HTU21D;54116;53.518;49.398;2023-02-01T11:26:15;-1.76;58.36
67186;HTU21D;54116;53.518;49.398;2023-02-01T11:28:53;-1.76;59.89
67186;HTU21D;54116;53.518;49.398;2023-02-01T11:31:20;-1.77;58.92
67186;HTU21D;54116;53.518;49.398;2023-02-01T11:33:52;-1.77;57.96
67186;HTU21D;54116;53.518;49.398;2023-02-01T11:36:26;-1.90;58.32
67186;HTU21D;54116;53.518;49.398;2023-02-01T11:44:42;-2.12;60.86
67186;HTU21D;54116;53.518;49.398;2023-02-01T11:49:55;-2.24;59.99
67186;HTU21D;54116;53.518;49.398;2023-02-01T11:52:41;-2.28;61.74
67186;HTU21D;54116;53.518;49.398;2023-02-01T11:55:29;-2.30;60.71
67186;HTU21D;54116;53.518;49.398;2023-02-01T11:58:15;-2.44;58.87
67186;HTU21D;54116;53.518;49.398;2023-02-01T12:00:56;-2.31;61.09
67186;HTU21D;54116;53.518;49.398;2023-02-01T12:25:24;-2.51;60.49
67186;HTU21D;54116;53.518;49.398;2023-02-01T12:30:52;-2.71;60.82
67186;HTU21D;54116;53.518;49.398;2023-02-01T12:36:48;-2.77;60.83
67186;HTU21D;54116;53.518;49.398;2023-02-01T12:47:26;-3.35;63.79
67186;HTU21D;54116;53.518;49.398;2023-02-01T12:50:25;-3.52;65.16
67186;HTU21D;54116;53.518;49.398;2023-02-01T12:52:56;-3.68;64.95
67186;HTU21D;54116;53.518;49.398;2023-02-01T12:55:41;-3.80;65.28
67186;HTU21D;54116;53.518;49.398;2023-02-01T13:01:03;-3.96;66.37
67186;HTU21D;54116;53.518;49.398;2023-02-01T13:06:20;-4.20;67.62
67186;HTU21D;54116;53.518;49.398;2023-02-01T13:08:56;-4.34;68.26
67186;HTU21D;54116;53.518;49.398;2023-02-01T13:11:34;-4.39;68.94
67186;HTU21D;54116;53.518;49.398;2023-02-01T13:14:25;-4.46;69.35
67186;HTU21D;54116;53.518;49.398;2023-02-01T13:17:19;-4.55;69.58
67186;HTU21D;54116;53.518;49.398;2023-02-01T13:19:57;-4.65;70.42
67186;HTU21D;54116;53.518;49.398;2023-02-01T13:22:39;-4.76;70.71
67186;HTU21D;54116;53.518;49.398;2023-02-01T13:27:37;-4.88;71.55
67186;HTU21D;54116;53.518;49.398;2023-02-01T13:30:23;-4.94;72.53
67186;HTU21D;54116;53.518;49.398;2023-02-01T13:33:06;-5.01;73.28
67186;HTU21D;54116;53.518;49.398;2023-02-01T13:41:28;-5.08;74.85
67186;HTU21D;54116;53.518;49.398;2023-02-01T13:44:13;-5.08;75.16
67186;HTU21D;54116;53.518;49.398;2023-02-01T13:46:44;-5.08;75.43
67186;HTU21D;54116;53.518;49.398;2023-02-01T13:49:23;-5.09;74.96
67186;HTU21D;54116;53.518;49.398;2023-02-01T13:51:53;-5.12;74.87
67186;HTU21D;54116;53.518;49.398;2023-02-01T13:54:32;-5.16;74.71
67186;HTU21D;54116;53.518;49.398;2023-02-01T13:57:00;-5.24;75.51
67186;HTU21D;54116;53.518;49.398;2023-02-01T13:59:48;-5.29;74.38
67186;HTU21D;54116;53.518;49.398;2023-02-01T14:05:04;-5.50;73.70
67186;HTU21D;54116;53.518;49.398;2023-02-01T14:07:33;-5.56;72.83
67186;HTU21D;54116;53.518;49.398;2023-02-01T14:13:11;-5.67;72.38
67186;HTU21D;54116;53.518;49.398;2023-02-01T14:15:38;-5.77;72.73
67186;HTU21D;54116;53.518;49.398;2023-02-01T14:21:28;-5.86;70.46
67186;HTU21D;54116;53.518;49.398;2023-02-01T14:26:43;-5.86;70.47
67186;HTU21D;54116;53.518;49.398;2023-02-01T14:39:57;-6.33;73.27
67186;HTU21D;54116;53.518;49.398;2023-02-01T14:47:53;-6.52;71.90
67186;HTU21D;54116;53.518;49.398;2023-02-01T15:00:58;-6.53;73.64
67186;HTU21D;54116;53.518;49.398;2023-02-01T15:06:26;-6.55;72.86
67186;HTU21D;54116;53.518;49.398;2023-02-01T15:09:38;-6.63;73.33
67186;HTU21D;54116;53.518;49.398;2023-02-01T15:11:55;-6.60;72.52
67186;HTU21D;54116;53.518;49.398;2023-02-01T15:14:22;-6.60;72.87
67186;HTU21D;54116;53.518;49.398;2023-02-01T15:16:48;-6.59;71.97
67186;HTU21D;54116;53.518;49.398;2023-02-01T15:19:22;-6.57;72.45
67186;HTU21D;54116;53.518;49.398;2023-02-01T15:21:51;-6.63;72.77
67186;HTU21D;54116;53.518;49.398;2023-02-01T15:24:29;-6.73;73.28
67186;HTU21D;54116;53.518;49.398;2023-02-01T15:27:02;-6.77;72.87
67186;HTU21D;54116;53.518;49.398;2023-02-01T15:29:29;-6.79;73.25
67186;HTU21D;54116;53.518;49.398;2023-02-01T15:31:59;-6.90;74.52
67186;HTU21D;54116;53.518;49.398;2023-02-01T15:34:45;-6.98;74.04
67186;HTU21D;54116;53.518;49.398;2023-02-01T15:37:13;-7.04;74.25
67186;HTU21D;54116;53.518;49.398;2023-02-01T15:42:29;-7.22;75.23
67186;HTU21D;54116;53.518;49.398;2023-02-01T15:44:55;-7.23;76.31
67186;HTU21D;54116;53.518;49.398;2023-02-01T15:47:28;-7.24;76.02
67186;HTU21D;54116;53.518;49.398;2023-02-01T15:50:00;-7.23;75.76
67186;HTU21D;54116;53.518;49.398;2023-02-01T15:52:36;-7.24;75.89
67186;HTU21D;54116;53.518;49.398;2023-02-01T15:55:38;-7.24;76.53
67186;HTU21D;54116;53.518;49.398;2023-02-01T15:58:15;-7.25;76.79
67186;HTU21D;54116;53.518;49.398;2023-02-01T16:00:46;-7.29;76.39
67186;HTU21D;54116;53.518;49.398;2023-02-01T16:03:39;-7.31;76.08
67186;HTU21D;54116;53.518;49.398;2023-02-01T16:06:10;-7.31;76.21
67186;HTU21D;54116;53.518;49.398;2023-02-01T16:08:38;-7.34;75.86
67186;HTU21D;54116;53.518;49.398;2023-02-01T16:11:22;-7.35;75.09
67186;HTU21D;54116;53.518;49.398;2023-02-01T16:13:49;-7.34;75.25
67186;HTU21D;54116;53.518;49.398;2023-02-01T16:16:15;-7.38;75.71
67186;HTU21D;54116;53.518;49.398;2023-02-01T16:18:42;-7.47;76.34
67186;HTU21D;54116;53.518;49.398;2023-02-01T16:21:09;-7.52;77.31
67186;HTU21D;54116;53.518;49.398;2023-02-01T16:23:35;-7.60;77.01
67186;HTU21D;54116;53.518;49.398;2023-02-01T16:26:02;-7.68;78.11
67186;HTU21D;54116;53.518;49.398;2023-02-01T16:28:29;-7.77;79.36
67186;HTU21D;54116;53.518;49.398;2023-02-01T16:30:56;-7.85;79.28
67186;HTU21D;54116;53.518;49.398;2023-02-01T16:33:23;-7.96;78.95
67186;HTU21D;54116;53.518;49.398;2023-02-01T16:35:49;-8.03;80.74
67186;HTU21D;54116;53.518;49.398;2023-02-01T16:38:18;-8.05;81.59
67186;HTU21D;54116;53.518;49.398;2023-02-01T16:40:48;-8.06;80.24
67186;HTU21D;54116;53.518;49.398;2023-02-01T16:43:16;-8.14;80.07
67186;HTU21D;54116;53.518;49.398;2023-02-01T16:45:44;-8.25;80.84
67186;HTU21D;54116;53.518;49.398;2023-02-01T16:48:23;-8.37;81.39
67186;HTU21D;54116;53.518;49.398;2023-02-01T16:51:01;-8.46;82.09
67186;HTU21D;54116;53.518;49.398;2023-02-01T16:53:30;-8.55;82.34
67186;HTU21D;54116;53.518;49.398;2023-02-01T16:55:57;-8.64;82.36
67186;HTU21D;54116;53.518;49.398;2023-02-01T16:58:25;-8.63;84.10
67186;HTU21D;54116;53.518;49.398;2023-02-01T17:00:52;-8.59;83.13
67186;HTU21D;54116;53.518;49.398;2023-02-01T17:03:19;-8.59;83.61
67186;HTU21D;54116;53.518;49.398;2023-02-01T17:05:49;-8.60;83.50
67186;HTU21D;54116;53.518;49.398;2023-02-01T17:08:19;-8.56;83.88
67186;HTU21D;54116;53.518;49.398;2023-02-01T17:10:47;-8.50;82.17
67186;HTU21D;54116;53.518;49.398;2023-02-01T17:13:15;-8.43;81.84
67186;HTU21D;54116;53.518;49.398;2023-02-01T17:15:54;-8.44;81.82
67186;HTU21D;54116;53.518;49.398;2023-02-01T17:18:21;-8.42;82.55
67186;HTU21D;54116;53.518;49.398;2023-02-01T17:20:48;-8.48;82.29
67186;HTU21D;54116;53.518;49.398;2023-02-01T17:23:18;-8.59;81.14
67186;HTU21D;54116;53.518;49.398;2023-02-01T17:25:44;-8.69;82.39
67186;HTU21D;54116;53.518;49.398;2023-02-01T17:28:13;-8.77;81.89
67186;HTU21D;54116;53.518;49.398;2023-02-01T17:30:39;-8.85;83.32
67186;HTU21D;54116;53.518;49.398;2023-02-01T17:33:31;-8.93;85.45
67186;HTU21D;54116;53.518;49.398;2023-02-01T17:36:00;-9.01;85.28
67186;HTU21D;54116;53.518;49.398;2023-02-01T17:38:26;-9.02;84.74
67186;HTU21D;54116;53.518;49.398;2023-02-01T17:40:52;-9.03;85.31
67186;HTU21D;54116;53.518;49.398;2023-02-01T17:43:24;-9.09;84.73
67186;HTU21D;54116;53.518;49.398;2023-02-01T17:48:25;-9.07;86.89
67186;HTU21D;54116;53.518;49.398;2023-02-01T17:50:52;-9.12;85.48
67186;HTU21D;54116;53.518;49.398;2023-02-01T17:53:25;-9.18;86.16
67186;HTU21D;54116;53.518;49.398;2023-02-01T17:55:52;-9.29;84.92
67186;HTU21D;54116;53.518;49.398;2023-02-01T17:58:19;-9.41;85.31
67186;HTU21D;54116;53.518;49.398;2023-02-01T18:00:47;-9.56;86.08
67186;HTU21D;54116;53.518;49.398;2023-02-01T18:03:24;-9.63;88.41
67186;HTU21D;54116;53.518;49.398;2023-02-01T18:05:52;-9.71;87.93
67186;HTU21D;54116;53.518;49.398;2023-02-01T18:08:24;-9.76;89.22
67186;HTU21D;54116;53.518;49.398;2023-02-01T18:10:55;-9.75;87.84